Time;durP1;ratioP1;P1;durP2;ratioP2;P2;SDS_P1;SDS_P2;PMS_P1;PMS_P2;Temp;Humidity;BMP_temperature;BMP_pressure;BME280_temperature;BME280_humidity;BME280_pressure;Samples;Min_cycle;Max_cycle;Signal;HPM_P1;HPM_P2
2021/10/31 10:36:49;;;;;;;3.55;3.25;;;12.20;99.90;;;;;;5128263;23;20140;-77
2021/10/31 10:39:18;;;;;;;3.75;3.35;;;12.30;99.90;;;;;;4854471;29;20053;-77
2021/10/31 10:41:49;;;;;;;5.63;3.10;;;12.30;99.90;;;;;;4861074;29;20502;-76
2021/10/31 10:44:22;;;;;;;4.75;3.60;;;12.30;99.90;;;;;;4852532;29;20042;-79
2021/10/31 10:46:50;;;;;;;6.50;3.17;;;12.30;99.90;;;;;;4854226;29;20478;-78
2021/10/31 10:49:20;;;;;;;4.00;3.60;;;12.30;99.90;;;;;;4859834;29;20041;-76
2021/10/31 10:52:07;;;;;;;4.65;3.67;;;12.40;99.90;;;;;;4858587;29;20483;-79
2021/10/31 10:54:37;;;;;;;3.65;3.08;;;12.40;99.90;;;;;;4858295;29;20112;-77
2021/10/31 10:57:05;;;;;;;3.45;3.15;;;12.60;99.90;;;;;;4857974;29;20033;-75
2021/10/31 10:59:32;;;;;;;2.95;2.72;;;12.70;99.90;;;;;;4858279;29;20033;-77
2021/10/31 11:02:13;;;;;;;3.10;2.72;;;12.80;99.90;;;;;;4859141;29;20033;-77
2021/10/31 11:04:40;;;;;;;3.30;2.55;;;13.00;99.90;;;;;;4848447;29;20116;-77
2021/10/31 11:07:07;;;;;;;3.22;2.70;;;13.00;99.90;;;;;;4857296;29;20037;-77
2021/10/31 11:09:51;;;;;;;2.78;2.50;;;13.10;99.90;;;;;;4857534;29;20470;-76
2021/10/31 11:12:29;;;;;;;2.67;2.40;;;13.20;99.90;;;;;;4860102;29;20038;-76
2021/10/31 11:14:58;;;;;;;2.95;2.50;;;13.30;99.90;;;;;;4853067;29;20553;-78
2021/10/31 11:17:24;;;;;;;2.95;2.67;;;13.30;99.90;;;;;;4857657;29;20030;-76
2021/10/31 11:19:55;;;;;;;2.92;2.20;;;13.40;99.90;;;;;;4858742;29;20040;-76
2021/10/31 11:22:22;;;;;;;4.15;2.60;;;13.50;99.90;;;;;;4857748;29;20539;-75
2021/10/31 11:24:50;;;;;;;2.33;2.10;;;13.50;99.90;;;;;;4860195;29;20040;-79
2021/10/31 11:27:18;;;;;;;2.35;2.10;;;13.60;99.90;;;;;;4856922;29;20073;-79
2021/10/31 11:29:46;;;;;;;3.28;2.10;;;13.80;99.90;;;;;;4840655;29;20150;-80
2021/10/31 11:32:13;;;;;;;2.72;2.40;;;13.80;99.90;;;;;;4853785;29;20033;-78
2021/10/31 11:34:47;;;;;;;2.10;1.90;;;13.80;99.90;;;;;;4859938;29;20036;-79
2021/10/31 11:37:15;;;;;;;4.30;2.60;;;13.70;99.90;;;;;;4856864;29;20060;-80
2021/10/31 11:39:42;;;;;;;3.28;2.22;;;13.70;99.90;;;;;;4856419;29;20078;-80
2021/10/31 11:42:09;;;;;;;2.80;2.47;;;13.70;99.90;;;;;;4857172;29;20084;-76
2021/10/31 11:45:02;;;;;;;3.47;2.22;;;13.80;99.90;;;;;;4859520;29;20026;-75
2021/10/31 11:47:31;;;;;;;2.28;2.08;;;13.80;99.90;;;;;;4854392;29;20029;-77
2021/10/31 11:50:07;;;;;;;2.78;2.08;;;13.80;99.90;;;;;;4859059;29;20026;-75
2021/10/31 11:52:58;;;;;;;3.90;2.10;;;13.90;99.90;;;;;;4858162;29;20438;-77
2021/10/31 11:55:29;;;;;;;4.13;2.40;;;13.90;99.90;;;;;;4854700;29;20072;-75
2021/10/31 11:58:01;;;;;;;2.47;2.30;;;14.00;99.90;;;;;;4857813;29;20038;-79
2021/10/31 12:00:28;;;;;;;5.28;2.22;;;14.00;99.90;;;;;;4855524;29;20588;-80
2021/10/31 12:02:56;;;;;;;2.75;1.80;;;14.00;99.90;;;;;;4856167;29;20077;-81
2021/10/31 12:05:39;;;;;;;2.80;2.60;;;14.00;99.90;;;;;;4858013;29;20049;-79
2021/10/31 12:08:09;;;;;;;2.30;2.10;;;14.00;99.90;;;;;;4857789;29;20022;-79
2021/10/31 12:10:37;;;;;;;2.30;2.10;;;14.10;99.90;;;;;;4858782;29;20030;-79
2021/10/31 12:13:13;;;;;;;2.20;2.00;;;14.10;99.90;;;;;;4858282;29;20068;-79
2021/10/31 12:15:55;;;;;;;4.93;2.42;;;14.10;99.90;;;;;;4857971;29;20509;-79
2021/10/31 12:18:44;;;;;;;2.35;2.10;;;14.10;99.90;;;;;;4859704;29;20125;-78
2021/10/31 12:21:26;;;;;;;2.30;2.10;;;14.10;99.90;;;;;;4858559;29;20436;-78
2021/10/31 12:23:55;;;;;;;2.00;1.80;;;14.20;99.90;;;;;;4858491;29;20025;-78
2021/10/31 12:26:22;;;;;;;2.40;2.00;;;14.30;99.90;;;;;;4858470;29;20029;-78
2021/10/31 12:28:48;;;;;;;2.20;2.03;;;14.30;99.90;;;;;;4857331;29;20818;-78
2021/10/31 12:31:31;;;;;;;1.92;1.83;;;14.30;99.90;;;;;;4858537;29;20553;-79
2021/10/31 12:34:09;;;;;;;3.47;2.40;;;14.30;99.90;;;;;;4860477;29;20037;-79
2021/10/31 12:36:36;;;;;;;2.20;2.00;;;14.40;99.90;;;;;;4862505;29;20075;-78
2021/10/31 12:39:23;;;;;;;2.33;2.10;;;14.40;99.90;;;;;;4861806;29;20034;-78
2021/10/31 12:42:17;;;;;;;3.15;1.92;;;14.40;99.90;;;;;;4861798;29;20057;-79
2021/10/31 12:44:56;;;;;;;3.38;1.70;;;14.40;99.90;;;;;;4861240;29;20037;-79
2021/10/31 12:47:33;;;;;;;2.35;2.00;;;14.50;99.90;;;;;;4862077;29;20389;-79
2021/10/31 12:50:12;;;;;;;2.83;2.20;;;14.50;99.90;;;;;;4861356;29;20097;-79
2021/10/31 12:52:38;;;;;;;2.85;1.95;;;14.50;99.90;;;;;;4861846;29;20037;-79
2021/10/31 12:55:19;;;;;;;2.30;2.10;;;14.50;99.90;;;;;;4861820;29;20029;-79
2021/10/31 12:57:53;;;;;;;1.88;1.73;;;14.50;99.90;;;;;;4860986;29;20026;-79
2021/10/31 13:00:19;;;;;;;1.77;1.67;;;14.60;99.90;;;;;;4861540;29;20478;-82
2021/10/31 13:02:51;;;;;;;1.83;1.58;;;14.60;99.90;;;;;;4862841;29;20072;-79
2021/10/31 13:05:28;;;;;;;2.25;2.05;;;14.60;99.90;;;;;;4860781;29;20077;-79
2021/10/31 13:07:56;;;;;;;1.58;1.48;;;14.70;99.90;;;;;;4861640;29;20097;-80
2021/10/31 13:10:30;;;;;;;4.18;1.92;;;14.60;99.90;;;;;;4863030;29;20108;-79
2021/10/31 13:13:02;;;;;;;2.22;1.85;;;14.70;99.90;;;;;;4860455;29;20566;-78
2021/10/31 13:15:28;;;;;;;;;;;14.70;99.90;;;;;;4863164;29;20029;-79
2021/10/31 13:17:55;;;;;;;4.82;2.05;;;14.70;99.90;;;;;;4860627;29;19939;-79
2021/10/31 13:20:25;;;;;;;2.42;2.00;;;14.70;99.90;;;;;;4861565;29;20080;-80
2021/10/31 13:22:59;;;;;;;3.05;2.13;;;14.70;99.90;;;;;;4861452;29;20040;-78
2021/10/31 13:25:29;;;;;;;5.38;2.05;;;14.70;99.90;;;;;;4860734;29;20032;-79
2021/10/31 13:27:59;;;;;;;3.40;2.13;;;14.70;99.90;;;;;;4861363;29;20033;-79
2021/10/31 13:30:27;;;;;;;3.13;1.85;;;14.70;99.90;;;;;;4861372;29;20355;-78
2021/10/31 13:32:52;;;;;;;2.00;1.80;;;14.70;99.90;;;;;;4861778;29;20390;-78
2021/10/31 13:35:18;;;;;;;3.97;1.90;;;14.70;99.90;;;;;;4860899;29;20017;-79
2021/10/31 13:37:44;;;;;;;4.10;2.15;;;14.70;99.90;;;;;;4860771;29;20045;-81
2021/10/31 13:40:11;;;;;;;3.22;2.22;;;14.70;99.90;;;;;;4860032;29;20030;-80
2021/10/31 13:42:40;;;;;;;3.33;2.28;;;14.70;99.90;;;;;;4861210;29;20124;-80
2021/10/31 13:45:15;;;;;;;6.88;2.47;;;14.80;99.90;;;;;;4860644;29;20061;-79
2021/10/31 13:47:44;;;;;;;2.58;2.30;;;14.80;99.90;;;;;;4860032;29;20038;-80
2021/10/31 13:50:11;;;;;;;3.78;2.80;;;14.80;99.90;;;;;;4860784;29;20017;-80
2021/10/31 13:52:37;;;;;;;3.75;2.50;;;14.80;99.90;;;;;;4861774;29;20044;-80
2021/10/31 13:55:07;;;;;;;6.88;2.63;;;14.80;99.90;;;;;;4861230;29;20025;-79
2021/10/31 13:57:34;;;;;;;3.95;2.85;;;14.90;99.90;;;;;;4860813;29;20387;-79
2021/10/31 14:00:00;;;;;;;6.80;3.00;;;14.90;99.90;;;;;;4861220;29;20167;-78
2021/10/31 14:02:26;;;;;;;4.50;2.97;;;14.90;99.90;;;;;;4860866;29;20049;-78
2021/10/31 14:05:08;;;;;;;3.00;2.70;;;14.90;99.90;;;;;;4860589;29;20021;-77
2021/10/31 14:07:36;;;;;;;3.67;2.90;;;14.90;99.90;;;;;;4859829;29;20112;-76
2021/10/31 14:10:03;;;;;;;3.13;2.85;;;14.90;99.90;;;;;;4860306;29;20017;-77
2021/10/31 14:12:29;;;;;;;4.25;2.70;;;14.80;99.90;;;;;;4860372;29;20034;-78
2021/10/31 14:15:15;;;;;;;4.30;2.67;;;14.90;99.90;;;;;;4859907;29;20029;-80
2021/10/31 14:17:59;;;;;;;4.10;2.20;;;14.90;99.90;;;;;;4860212;29;20034;-78
2021/10/31 14:20:36;;;;;;;3.08;2.63;;;14.90;99.90;;;;;;4860748;29;20026;-78
2021/10/31 14:23:03;;;;;;;3.60;2.40;;;14.90;99.90;;;;;;4859409;29;20030;-79
2021/10/31 14:25:30;;;;;;;3.13;2.83;;;14.80;99.90;;;;;;4860289;29;20025;-80
2021/10/31 14:28:14;;;;;;;3.00;2.70;;;14.80;99.90;;;;;;4859829;29;20033;-78
2021/10/31 14:31:00;;;;;;;4.05;2.65;;;14.80;99.90;;;;;;4860021;29;20043;-77
2021/10/31 14:33:29;;;;;;;3.28;2.97;;;14.80;99.90;;;;;;4861341;29;20025;-77
2021/10/31 14:36:16;;;;;;;2.58;2.38;;;14.80;99.90;;;;;;4860690;29;20108;-78
2021/10/31 14:38:56;;;;;;;4.07;2.83;;;14.80;99.90;;;;;;4859879;29;20197;-78
2021/10/31 14:41:28;;;;;;;3.08;2.78;;;14.80;99.90;;;;;;4860308;29;20116;-78
2021/10/31 14:43:56;;;;;;;3.58;2.80;;;14.80;99.90;;;;;;4859308;29;20026;-78
2021/10/31 14:46:25;;;;;;;3.22;2.92;;;14.80;99.90;;;;;;4860141;29;20030;-77
2021/10/31 14:48:54;;;;;;;3.30;3.00;;;14.80;99.90;;;;;;4860998;29;20033;-78
2021/10/31 14:51:38;;;;;;;4.07;3.33;;;14.80;99.90;;;;;;4860279;29;20371;-80
2021/10/31 14:54:08;;;;;;;3.85;3.33;;;14.70;99.90;;;;;;4859961;29;20053;-78
2021/10/31 14:56:45;;;;;;;3.90;3.15;;;14.70;99.90;;;;;;4859932;29;20022;-78
2021/10/31 14:59:13;;;;;;;3.80;3.25;;;14.60;99.90;;;;;;4860836;29;20025;-78
2021/10/31 15:01:49;;;;;;;3.42;3.08;;;14.60;99.90;;;;;;4860782;29;20105;-80
2021/10/31 15:04:17;;;;;;;4.00;3.38;;;14.60;99.90;;;;;;4859989;29;20374;-80
2021/10/31 15:06:45;;;;;;;4.60;2.90;;;14.60;99.90;;;;;;4860645;29;20030;-79
2021/10/31 15:09:12;;;;;;;5.18;3.55;;;14.50;99.90;;;;;;4859371;29;20117;-77
2021/10/31 15:11:37;;;;;;;4.28;3.25;;;14.50;99.90;;;;;;4858781;29;20109;-78
2021/10/31 15:14:03;;;;;;;3.47;3.17;;;14.50;99.90;;;;;;4860594;29;20496;-77
2021/10/31 15:16:29;;;;;;;3.75;3.28;;;14.50;99.90;;;;;;4859259;29;20112;-78
2021/10/31 15:18:56;;;;;;;4.03;3.33;;;14.50;99.90;;;;;;4858570;29;20033;-80
2021/10/31 15:21:24;;;;;;;4.63;3.10;;;14.50;99.90;;;;;;4860649;29;20040;-77
2021/10/31 15:23:50;;;;;;;4.68;3.33;;;14.50;99.90;;;;;;4858897;29;20402;-77
2021/10/31 15:26:15;;;;;;;3.85;2.95;;;14.40;99.90;;;;;;4858555;29;20029;-80
2021/10/31 15:28:41;;;;;;;3.05;2.75;;;14.40;99.90;;;;;;4858998;29;20026;-78
2021/10/31 15:31:07;;;;;;;2.90;2.70;;;14.40;99.90;;;;;;4859020;29;20025;-80
2021/10/31 15:33:37;;;;;;;3.20;2.80;;;14.40;99.90;;;;;;4858373;29;20041;-78
2021/10/31 15:36:05;;;;;;;2.70;2.50;;;14.40;99.90;;;;;;4859049;29;20066;-77
2021/10/31 15:38:32;;;;;;;6.45;2.50;;;14.40;99.90;;;;;;4858493;29;20034;-78
2021/10/31 15:40:58;;;;;;;2.90;2.60;;;14.50;99.90;;;;;;4860106;29;20037;-77
2021/10/31 15:43:24;;;;;;;2.65;2.40;;;14.50;99.90;;;;;;4859134;29;20021;-79
2021/10/31 15:45:49;;;;;;;2.20;2.03;;;14.50;99.90;;;;;;4858401;29;20086;-77
2021/10/31 15:48:15;;;;;;;3.08;2.63;;;14.50;99.90;;;;;;4858797;29;20546;-78
2021/10/31 15:50:40;;;;;;;4.43;2.35;;;14.50;99.90;;;;;;4860393;29;20030;-78
2021/10/31 15:53:06;;;;;;;2.50;2.20;;;14.50;99.90;;;;;;4857932;29;20136;-79
2021/10/31 15:55:32;;;;;;;2.30;2.10;;;14.50;99.90;;;;;;4859969;29;20025;-79
2021/10/31 15:58:00;;;;;;;5.32;2.53;;;14.50;99.90;;;;;;4858438;29;20030;-78
2021/10/31 16:00:26;;;;;;;3.65;2.53;;;14.50;99.90;;;;;;4858368;29;20037;-78
2021/10/31 16:02:58;;;;;;;2.63;2.30;;;14.50;99.90;;;;;;4859908;29;20030;-78
2021/10/31 16:05:25;;;;;;;2.83;2.05;;;14.50;99.90;;;;;;4859113;29;20093;-78
2021/10/31 16:07:51;;;;;;;2.47;1.85;;;14.50;99.90;;;;;;4857425;29;20037;-78
2021/10/31 16:10:17;;;;;;;2.28;2.08;;;14.50;99.90;;;;;;4858263;29;20386;-77
2021/10/31 16:12:42;;;;;;;2.45;2.20;;;14.50;99.90;;;;;;4858614;29;20044;-78
2021/10/31 16:15:08;;;;;;;2.38;2.05;;;14.40;99.90;;;;;;4859160;29;20074;-78
2021/10/31 16:17:35;;;;;;;3.42;2.50;;;14.50;99.90;;;;;;4859708;29;20037;-78
2021/10/31 16:20:00;;;;;;;3.50;3.17;;;14.40;99.90;;;;;;4858249;29;20069;-79
2021/10/31 16:22:26;;;;;;;3.70;2.50;;;14.50;99.90;;;;;;4856392;29;20419;-75
2021/10/31 16:24:52;;;;;;;2.67;2.45;;;14.50;99.90;;;;;;4857376;29;20042;-80
2021/10/31 16:27:24;;;;;;;2.97;2.67;;;14.50;99.90;;;;;;4848432;29;20089;-86
2021/10/31 16:29:49;;;;;;;2.95;2.53;;;14.50;99.90;;;;;;4858792;29;20080;-88
2021/10/31 16:32:15;;;;;;;3.95;2.30;;;14.50;99.90;;;;;;4840673;29;20073;-85
2021/10/31 16:34:41;;;;;;;3.05;2.08;;;14.50;99.90;;;;;;4847716;29;20038;-82
2021/10/31 16:37:08;;;;;;;3.10;2.80;;;14.50;99.90;;;;;;4857250;29;20044;-81
2021/10/31 16:39:34;;;;;;;3.15;2.50;;;14.50;99.90;;;;;;4851719;29;20039;-84
2021/10/31 16:42:05;;;;;;;3.53;2.80;;;14.50;99.90;;;;;;4849096;29;20810;-84
2021/10/31 16:44:32;;;;;;;2.85;2.35;;;14.50;99.90;;;;;;4855103;29;20041;-84
2021/10/31 16:46:58;;;;;;;3.38;2.67;;;14.50;99.90;;;;;;4857381;29;20072;-78
2021/10/31 16:49:24;;;;;;;3.20;2.38;;;14.50;99.90;;;;;;4857156;29;20473;-83
2021/10/31 16:51:50;;;;;;;3.20;2.90;;;14.50;99.90;;;;;;4851320;29;20589;-80
2021/10/31 16:54:16;;;;;;;6.88;2.60;;;14.50;99.90;;;;;;4853886;29;20071;-80
2021/10/31 16:56:44;;;;;;;2.97;2.70;;;14.50;99.90;;;;;;4856199;29;20046;-81
2021/10/31 16:59:11;;;;;;;8.38;4.13;;;14.50;99.90;;;;;;4854832;29;20553;-90
2021/10/31 17:01:38;;;;;;;5.57;3.47;;;14.50;99.90;;;;;;4855190;29;20040;-80
2021/10/31 17:04:05;;;;;;;5.00;3.10;;;14.50;99.90;;;;;;4853657;29;20041;-85
2021/10/31 17:06:31;;;;;;;3.33;2.92;;;14.50;99.90;;;;;;4854672;29;20022;-75
2021/10/31 17:08:57;;;;;;;8.57;2.80;;;14.50;99.90;;;;;;4855519;29;20065;-75
2021/10/31 17:11:22;;;;;;;3.65;2.70;;;14.50;99.90;;;;;;4854697;29;20061;-75
2021/10/31 17:13:48;;;;;;;4.60;2.40;;;14.50;99.90;;;;;;4855576;29;20060;-76
2021/10/31 17:16:15;;;;;;;2.80;2.15;;;14.50;99.90;;;;;;4852460;29;20040;-75
2021/10/31 17:18:41;;;;;;;2.30;2.10;;;14.60;99.90;;;;;;4853910;29;20113;-75
2021/10/31 17:21:07;;;;;;;2.45;2.20;;;14.60;99.90;;;;;;4855162;29;20088;-77
2021/10/31 17:23:33;;;;;;;2.38;2.17;;;14.60;99.90;;;;;;4857943;29;20486;-75
2021/10/31 17:25:59;;;;;;;2.30;2.08;;;14.60;99.90;;;;;;4856726;29;20436;-76
2021/10/31 17:28:25;;;;;;;3.28;2.20;;;14.60;99.90;;;;;;4858322;29;20034;-75
2021/10/31 17:30:52;;;;;;;2.60;2.40;;;14.60;99.90;;;;;;4857859;29;20033;-76
2021/10/31 17:33:19;;;;;;;3.33;2.67;;;14.60;99.90;;;;;;4856791;29;20034;-75
2021/10/31 17:35:45;;;;;;;1.90;1.80;;;14.60;99.90;;;;;;4855731;29;20057;-74
2021/10/31 17:38:10;;;;;;;4.30;2.30;;;14.60;99.90;;;;;;4855548;29;20088;-76
2021/10/31 17:40:36;;;;;;;18.40;12.77;;;14.70;99.90;;;;;;4858644;29;20376;-76
2021/10/31 17:43:03;;;;;;;15.88;12.52;;;14.60;99.90;;;;;;4857535;29;20029;-74
2021/10/31 17:45:29;;;;;;;7.32;6.30;;;14.60;99.90;;;;;;4855943;29;20041;-76
2021/10/31 17:47:55;;;;;;;8.20;6.53;;;14.60;99.90;;;;;;4858277;29;20034;-75
2021/10/31 17:50:25;;;;;;;4.55;3.55;;;14.60;99.90;;;;;;4858474;29;20094;-75
2021/10/31 17:52:51;;;;;;;4.30;2.50;;;14.60;99.90;;;;;;4845221;29;20534;-75
2021/10/31 17:55:17;;;;;;;10.32;8.48;;;14.60;99.90;;;;;;4840057;29;20030;-77
2021/10/31 17:57:44;;;;;;;16.40;13.25;;;14.70;99.90;;;;;;4839937;29;20048;-75
2021/10/31 18:00:19;;;;;;;22.23;17.23;;;14.70;99.90;;;;;;4838108;29;20047;-75
2021/10/31 18:02:45;;;;;;;23.13;18.45;;;14.70;99.90;;;;;;4838653;29;20029;-75
2021/10/31 18:05:11;;;;;;;33.22;24.98;;;14.70;99.90;;;;;;4847362;29;20695;-75
2021/10/31 18:07:38;;;;;;;24.55;20.83;;;14.70;99.90;;;;;;4857907;29;20518;-74
2021/10/31 18:10:06;;;;;;;18.10;15.57;;;14.70;99.90;;;;;;4857895;29;20084;-76
2021/10/31 18:12:32;;;;;;;10.10;9.10;;;14.80;99.90;;;;;;4858399;29;20045;-76
2021/10/31 18:14:57;;;;;;;12.63;11.07;;;14.80;99.90;;;;;;4857089;29;20482;-79
2021/10/31 18:17:29;;;;;;;10.05;9.18;;;14.80;99.90;;;;;;4855638;29;20033;-77
2021/10/31 18:19:54;;;;;;;6.75;6.05;;;14.80;99.90;;;;;;4851346;29;20029;-79
2021/10/31 18:22:20;;;;;;;6.18;5.22;;;14.80;99.90;;;;;;4855061;29;20036;-75
2021/10/31 18:24:48;;;;;;;4.15;3.53;;;14.80;99.90;;;;;;4858144;29;20506;-76
2021/10/31 18:27:14;;;;;;;5.95;3.05;;;14.80;99.90;;;;;;4855601;29;20037;-81
2021/10/31 18:29:40;;;;;;;4.07;2.70;;;14.80;99.90;;;;;;4856813;29;20040;-80
2021/10/31 18:32:06;;;;;;;3.88;2.95;;;14.80;99.90;;;;;;4854547;29;20609;-80
2021/10/31 18:34:35;;;;;;;3.75;2.70;;;14.80;99.90;;;;;;4848448;29;20097;-81
2021/10/31 18:37:06;;;;;;;14.73;4.20;;;14.80;99.90;;;;;;4856351;29;20136;-82
2021/10/31 18:39:32;;;;;;;3.60;1.70;;;14.80;99.90;;;;;;4856584;29;20021;-78
2021/10/31 18:41:58;;;;;;;4.22;3.60;;;14.70;99.90;;;;;;4854726;29;20036;-77
2021/10/31 18:44:24;;;;;;;3.90;2.35;;;14.40;99.90;;;;;;4855600;29;20117;-75
2021/10/31 18:46:49;;;;;;;4.70;2.40;;;14.30;99.90;;;;;;4856503;29;20022;-77
2021/10/31 18:49:15;;;;;;;3.33;2.10;;;14.00;99.90;;;;;;4854404;29;20396;-77
2021/10/31 18:51:41;;;;;;;7.93;1.98;;;13.90;99.90;;;;;;4856486;29;20090;-76
2021/10/31 18:54:11;;;;;;;2.75;1.67;;;13.60;99.90;;;;;;4855645;29;20121;-77
2021/10/31 18:56:41;;;;;;;5.28;1.98;;;13.50;99.90;;;;;;4854837;29;20037;-76
2021/10/31 18:59:08;;;;;;;6.28;2.25;;;13.40;99.90;;;;;;4855043;29;20102;-76
2021/10/31 19:01:35;;;;;;;5.72;2.08;;;13.30;99.90;;;;;;4851003;29;20082;-77
2021/10/31 19:04:01;;;;;;;6.97;2.67;;;13.10;99.90;;;;;;4855115;29;20089;-78
2021/10/31 19:06:27;;;;;;;8.23;2.95;;;13.10;99.90;;;;;;4856003;29;20118;-77
2021/10/31 19:08:52;;;;;;;4.47;2.38;;;13.00;99.90;;;;;;4854158;29;20169;-76
2021/10/31 19:11:18;;;;;;;5.93;2.50;;;13.00;99.90;;;;;;4855756;29;20053;-75
2021/10/31 19:13:44;;;;;;;6.90;2.72;;;13.00;99.90;;;;;;4853868;29;20132;-76
2021/10/31 19:16:09;;;;;;;7.32;2.50;;;13.00;99.90;;;;;;4854391;29;20029;-76
2021/10/31 19:18:35;;;;;;;6.68;2.33;;;12.90;99.90;;;;;;4856132;29;20108;-75
2021/10/31 19:21:03;;;;;;;7.00;2.67;;;12.90;99.90;;;;;;4856004;29;20037;-76
2021/10/31 19:23:29;;;;;;;6.63;2.70;;;12.90;99.90;;;;;;4852934;29;20033;-76
2021/10/31 19:25:54;;;;;;;5.05;2.20;;;12.90;99.90;;;;;;4851092;29;20383;-75
2021/10/31 19:28:20;;;;;;;4.97;2.38;;;12.90;99.90;;;;;;4852993;29;20387;-75
2021/10/31 19:30:55;;;;;;;5.50;2.22;;;12.90;99.90;;;;;;4850660;29;20497;-76
2021/10/31 19:33:21;;;;;;;6.47;3.90;;;12.90;99.90;;;;;;4843831;29;20053;-76
2021/10/31 19:35:48;;;;;;;11.68;4.50;;;12.80;99.90;;;;;;4844766;29;20029;-76
2021/10/31 19:38:13;;;;;;;10.02;3.63;;;12.90;99.90;;;;;;4842538;29;20045;-75
2021/10/31 19:40:40;;;;;;;9.70;3.17;;;12.90;99.90;;;;;;4851578;29;20030;-76
2021/10/31 19:43:06;;;;;;;7.78;2.63;;;12.90;99.90;;;;;;4851971;29;20034;-77
2021/10/31 19:45:32;;;;;;;8.20;3.10;;;12.90;99.90;;;;;;4853378;29;20028;-75
2021/10/31 19:47:58;;;;;;;9.55;3.45;;;12.90;99.90;;;;;;4849819;29;20178;-76
2021/10/31 19:50:24;;;;;;;8.57;2.70;;;12.90;99.90;;;;;;4847096;29;20546;-75
2021/10/31 19:52:49;;;;;;;5.55;2.20;;;12.90;99.90;;;;;;4845568;29;20038;-76
2021/10/31 19:55:15;;;;;;;7.40;2.63;;;12.90;99.90;;;;;;4847080;29;20461;-76
2021/10/31 19:57:40;;;;;;;10.50;3.28;;;12.80;99.90;;;;;;4848474;29;20038;-75
2021/10/31 20:00:07;;;;;;;8.98;2.90;;;12.90;99.90;;;;;;4844356;29;20077;-75
2021/10/31 20:02:32;;;;;;;9.57;3.40;;;12.90;99.90;;;;;;4851053;29;20045;-75
2021/10/31 20:04:58;;;;;;;7.63;2.78;;;12.80;99.90;;;;;;4847150;29;20586;-74
2021/10/31 20:07:24;;;;;;;11.25;2.80;;;12.80;99.90;;;;;;4838883;29;20108;-75
2021/10/31 20:09:50;;;;;;;9.20;2.85;;;12.80;99.90;;;;;;4853343;29;20035;-74
2021/10/31 20:12:15;;;;;;;7.60;2.50;;;12.70;99.90;;;;;;4854777;29;20703;-74
2021/10/31 20:14:41;;;;;;;6.20;2.83;;;12.70;99.90;;;;;;4854501;29;20089;-74
2021/10/31 20:17:07;;;;;;;9.90;4.30;;;12.80;99.90;;;;;;4847830;29;20037;-73
2021/10/31 20:19:32;;;;;;;10.23;4.10;;;12.70;99.90;;;;;;4843580;29;20386;-75
2021/10/31 20:21:58;;;;;;;7.05;4.25;;;12.70;99.90;;;;;;4849813;29;20108;-74
2021/10/31 20:24:26;;;;;;;10.23;3.33;;;12.70;99.90;;;;;;4845953;29;20033;-75
2021/10/31 20:26:53;;;;;;;7.38;2.63;;;12.60;99.90;;;;;;4854018;29;20045;-75
2021/10/31 20:29:20;;;;;;;10.35;2.67;;;12.60;99.90;;;;;;4856132;29;20053;-76
2021/10/31 20:31:46;;;;;;;7.65;2.17;;;12.60;99.90;;;;;;4854400;29;20029;-75
2021/10/31 20:34:12;;;;;;;6.90;2.55;;;12.60;99.90;;;;;;4852311;29;20410;-74
2021/10/31 20:36:39;;;;;;;8.50;2.22;;;12.50;99.90;;;;;;4856290;29;20540;-75
2021/10/31 20:39:06;;;;;;;7.78;3.05;;;12.40;99.90;;;;;;4854283;29;20041;-75
2021/10/31 20:41:32;;;;;;;9.90;4.43;;;12.30;99.90;;;;;;4855352;29;20029;-74
2021/10/31 20:43:58;;;;;;;17.50;10.23;;;12.30;99.90;;;;;;4850709;29;20026;-71
2021/10/31 20:46:25;;;;;;;20.10;9.68;;;12.20;99.90;;;;;;4854086;29;20510;-72
2021/10/31 20:48:51;;;;;;;21.15;11.15;;;12.20;99.90;;;;;;4853838;29;20029;-72
2021/10/31 20:51:19;;;;;;;36.17;19.35;;;12.10;99.90;;;;;;4855857;29;20036;-73
2021/10/31 20:53:44;;;;;;;30.95;15.73;;;12.10;99.90;;;;;;4856185;29;20034;-73
2021/10/31 20:56:19;;;;;;;36.25;18.10;;;12.10;99.90;;;;;;4856861;29;20095;-72
2021/10/31 20:58:54;;;;;;;33.83;17.50;;;12.00;99.90;;;;;;4860278;29;20049;-75
2021/10/31 21:01:23;;;;;;;39.25;20.80;;;12.00;99.90;;;;;;4861533;29;20022;-72
2021/10/31 21:03:49;;;;;;;37.05;18.67;;;11.90;99.90;;;;;;4860008;29;20070;-75
2021/10/31 21:06:16;;;;;;;33.97;18.27;;;11.90;99.90;;;;;;4861437;29;20382;-80
2021/10/31 21:08:43;;;;;;;25.45;12.38;;;11.90;99.90;;;;;;4857941;29;20081;-74
2021/10/31 21:11:08;;;;;;;19.60;8.60;;;11.90;99.90;;;;;;4852766;29;20025;-75
2021/10/31 21:13:34;;;;;;;10.05;5.05;;;11.80;99.90;;;;;;4853536;29;20056;-75
2021/10/31 21:16:00;;;;;;;18.75;5.28;;;11.80;99.90;;;;;;4861866;29;20467;-75
2021/10/31 21:18:25;;;;;;;12.55;5.15;;;11.80;99.90;;;;;;4853938;29;20060;-75
2021/10/31 21:20:51;;;;;;;10.77;4.85;;;11.70;99.90;;;;;;4858764;29;20486;-75
2021/10/31 21:23:18;;;;;;;13.48;5.10;;;11.70;99.90;;;;;;4855657;29;20842;-75
2021/10/31 21:25:45;;;;;;;16.85;4.97;;;11.70;99.90;;;;;;4861318;29;20035;-74
2021/10/31 21:28:12;;;;;;;10.00;4.15;;;11.60;99.90;;;;;;4856817;29;20037;-74
2021/10/31 21:30:39;;;;;;;7.63;3.65;;;11.60;99.90;;;;;;4843626;29;20026;-74
2021/10/31 21:33:09;;;;;;;12.63;2.95;;;11.60;99.90;;;;;;4860925;29;20029;-74
2021/10/31 21:35:35;;;;;;;11.25;3.28;;;11.60;99.90;;;;;;4861175;29;20382;-74
2021/10/31 21:38:02;;;;;;;8.00;2.72;;;11.60;99.90;;;;;;4861209;29;20124;-75
2021/10/31 21:40:28;;;;;;;13.85;3.33;;;11.50;99.90;;;;;;4861189;29;20053;-74
2021/10/31 21:42:54;;;;;;;9.55;2.95;;;11.50;99.90;;;;;;4861246;29;20064;-75
2021/10/31 21:45:20;;;;;;;8.65;2.50;;;11.50;99.90;;;;;;4860283;29;20120;-75
2021/10/31 21:47:46;;;;;;;8.40;2.80;;;11.50;99.90;;;;;;4860841;29;20036;-74
2021/10/31 21:50:11;;;;;;;6.28;2.45;;;11.50;99.90;;;;;;4860731;29;20052;-74
2021/10/31 21:52:37;;;;;;;12.73;2.78;;;11.40;99.90;;;;;;4861516;29;20139;-74
2021/10/31 21:55:05;;;;;;;11.70;2.95;;;11.40;99.90;;;;;;4861935;29;20033;-74
2021/10/31 21:57:30;;;;;;;9.85;2.30;;;11.40;99.90;;;;;;4861844;29;20040;-74
2021/10/31 21:59:56;;;;;;;12.07;2.70;;;11.30;99.90;;;;;;4859606;29;20034;-75
2021/10/31 22:02:22;;;;;;;9.05;2.40;;;11.30;99.90;;;;;;4862044;29;20443;-74
2021/10/31 22:04:48;;;;;;;6.93;2.90;;;11.30;99.90;;;;;;4861660;29;20061;-75
2021/10/31 22:07:13;;;;;;;9.48;3.45;;;11.40;99.90;;;;;;4861121;29;20072;-75
2021/10/31 22:09:39;;;;;;;11.95;2.88;;;11.30;99.90;;;;;;4860449;29;20033;-74
2021/10/31 22:12:06;;;;;;;9.32;2.72;;;11.30;99.90;;;;;;4861581;29;20065;-75
2021/10/31 22:14:32;;;;;;;12.25;3.03;;;11.30;99.90;;;;;;4860989;29;20030;-74
2021/10/31 22:16:59;;;;;;;10.35;2.45;;;11.20;99.90;;;;;;4861377;29;20037;-74
2021/10/31 22:19:26;;;;;;;9.80;2.80;;;11.20;99.90;;;;;;4861143;29;20032;-75
2021/10/31 22:21:52;;;;;;;12.23;3.03;;;11.20;99.90;;;;;;4861608;29;20018;-74
2021/10/31 22:24:18;;;;;;;7.13;2.40;;;11.20;99.90;;;;;;4860228;29;20069;-74
2021/10/31 22:26:44;;;;;;;8.60;2.75;;;11.20;99.90;;;;;;4860699;29;20021;-75
2021/10/31 22:29:10;;;;;;;10.23;2.78;;;11.20;99.90;;;;;;4861299;29;20029;-75
2021/10/31 22:31:35;;;;;;;9.93;2.88;;;11.20;99.90;;;;;;4861395;29;20033;-75
2021/10/31 22:34:01;;;;;;;9.25;2.58;;;11.20;99.90;;;;;;4859557;29;20037;-75
2021/10/31 22:36:28;;;;;;;10.63;2.55;;;11.20;99.90;;;;;;4860024;29;20045;-75
2021/10/31 22:38:53;;;;;;;10.40;4.65;;;11.20;99.90;;;;;;4861382;29;20173;-75
2021/10/31 22:41:19;;;;;;;38.88;16.08;;;11.10;99.90;;;;;;4860519;29;20465;-74
2021/10/31 22:43:48;;;;;;;50.67;17.38;;;11.10;99.90;;;;;;4861230;29;20562;-75
2021/10/31 22:46:13;;;;;;;56.88;20.20;;;11.10;99.90;;;;;;4860677;29;20036;-75
2021/10/31 22:48:39;;;;;;;68.68;24.08;;;11.10;99.90;;;;;;4859137;29;20030;-74
2021/10/31 22:51:04;;;;;;;54.58;22.30;;;11.10;99.90;;;;;;4861134;29;20032;-74
2021/10/31 22:53:30;;;;;;;43.45;18.33;;;11.00;99.90;;;;;;4859858;29;20132;-74
2021/10/31 22:55:56;;;;;;;23.58;10.82;;;11.00;99.90;;;;;;4859026;29;20017;-74
2021/10/31 22:58:21;;;;;;;23.13;9.90;;;11.00;99.90;;;;;;4859647;29;20364;-75
2021/10/31 23:00:52;;;;;;;18.73;10.85;;;11.00;99.90;;;;;;4860775;29;20041;-75
2021/10/31 23:03:29;;;;;;;22.67;10.73;;;11.00;99.90;;;;;;4860086;29;20120;-75
2021/10/31 23:06:00;;;;;;;15.77;9.43;;;11.00;99.90;;;;;;4860814;29;20025;-74
2021/10/31 23:08:27;;;;;;;11.63;6.35;;;11.00;99.90;;;;;;4860801;29;20064;-74
2021/10/31 23:10:53;;;;;;;15.88;6.18;;;10.90;99.90;;;;;;4859199;29;20029;-75
2021/10/31 23:13:19;;;;;;;13.18;5.47;;;10.90;99.90;;;;;;4859158;29;20048;-75
2021/10/31 23:15:46;;;;;;;13.55;6.75;;;10.90;99.90;;;;;;4859849;29;20032;-75
2021/10/31 23:18:13;;;;;;;10.70;6.10;;;10.90;99.90;;;;;;4858681;29;20558;-75
2021/10/31 23:20:39;;;;;;;14.80;7.07;;;10.90;99.90;;;;;;4860560;29;20037;-75
2021/10/31 23:23:04;;;;;;;13.43;5.93;;;10.90;99.90;;;;;;4858321;29;20029;-74
2021/10/31 23:25:30;;;;;;;11.93;5.30;;;10.90;99.90;;;;;;4858405;29;20041;-74